Terminal Aerodrome Forecast
Issued by NWS Brownsville, TX

Home | Current Version | Previous Version | Text Only | Print | Product List | Glossary On
Versions: 1 2 3 4 5 6 7 8 9 10 11 12 13 14 15 16 17 18
634
FTUS44 KBRO 202339
TAFHRL
TAF
KHRL 202339Z 2100/2124 01006KT P6SM VCSH OVC035
     FM210400 VRB03KT P6SM BKN035
     FM211500 20012KT P6SM SCT040=

USA.gov is the U.S. government's official web portal to all federal, state and local government web resources and services.